Time;durP1;ratioP1;P1;durP2;ratioP2;P2;SDS_P1;SDS_P2;PMS_P1;PMS_P2;Temp;Humidity;BMP_temperature;BMP_pressure;BME280_temperature;BME280_humidity;BME280_pressure;Samples;Min_cycle;Max_cycle;Signal;HPM_P1;HPM_P2
2022/01/05 00:02:14;;;;;;;4.07;1.33;;;2.80;99.90;;;;;;5018105;28;20056;-78
2022/01/05 00:04:39;;;;;;;10.60;1.45;;;2.70;99.90;;;;;;5018136;28;20751;-79
2022/01/05 00:07:06;;;;;;;5.32;1.52;;;2.70;99.90;;;;;;5035101;28;20068;-79
2022/01/05 00:09:32;;;;;;;3.42;1.35;;;2.70;99.90;;;;;;5019429;28;20048;-79
2022/01/05 00:11:57;;;;;;;6.22;2.30;;;2.70;99.90;;;;;;5036549;28;20067;-78
2022/01/05 00:14:23;;;;;;;4.20;1.50;;;2.70;99.90;;;;;;5017292;28;20044;-78
2022/01/05 00:16:48;;;;;;;3.90;1.60;;;2.70;99.90;;;;;;5017978;28;20768;-78
2022/01/05 00:19:14;;;;;;;3.13;2.30;;;2.70;99.90;;;;;;5035299;28;20037;-79
2022/01/05 00:21:40;;;;;;;4.18;2.13;;;2.70;99.90;;;;;;5036601;28;20849;-78
2022/01/05 00:24:07;;;;;;;5.47;2.25;;;2.70;99.90;;;;;;5034994;28;20045;-79
2022/01/05 00:26:33;;;;;;;1.58;1.40;;;2.70;99.90;;;;;;5019447;28;20064;-79
2022/01/05 00:28:59;;;;;;;8.93;1.98;;;2.70;99.90;;;;;;5036268;28;20068;-79
2022/01/05 00:31:25;;;;;;;3.75;2.53;;;2.70;99.90;;;;;;5037082;28;20118;-79
2022/01/05 00:33:50;;;;;;;7.53;2.58;;;2.70;99.90;;;;;;5018048;28;20060;-79
2022/01/05 00:36:17;;;;;;;9.90;2.33;;;2.80;99.90;;;;;;5017829;28;20082;-79
2022/01/05 00:38:43;;;;;;;3.83;1.58;;;3.00;99.90;;;;;;5018806;28;20041;-79
2022/01/05 00:41:08;;;;;;;6.22;2.00;;;2.70;99.90;;;;;;5016828;28;20049;-79
2022/01/05 00:43:34;;;;;;;2.47;1.98;;;2.70;99.90;;;;;;5017261;28;20480;-80
2022/01/05 00:45:59;;;;;;;3.85;2.00;;;2.70;99.90;;;;;;5018350;28;20056;-79
2022/01/05 00:48:25;;;;;;;1.70;1.48;;;2.70;99.90;;;;;;5018487;28;20066;-79
2022/01/05 00:50:51;;;;;;;8.57;2.33;;;2.70;99.90;;;;;;5037115;28;20081;-79
2022/01/05 00:53:16;;;;;;;4.53;2.15;;;2.80;99.90;;;;;;5019798;28;20690;-79
2022/01/05 00:55:42;;;;;;;5.65;2.10;;;2.70;99.90;;;;;;5019345;28;20041;-79
2022/01/05 00:58:07;;;;;;;4.18;1.73;;;2.80;99.90;;;;;;5036765;28;20055;-79
2022/01/05 01:00:33;;;;;;;7.45;1.95;;;2.80;99.90;;;;;;5018608;28;20119;-79
2022/01/05 01:02:58;;;;;;;3.20;1.88;;;2.80;99.90;;;;;;5035218;28;20140;-79
2022/01/05 01:05:24;;;;;;;5.80;2.85;;;2.90;99.90;;;;;;5036459;28;20044;-80
2022/01/05 01:07:50;;;;;;;6.00;2.40;;;2.90;99.90;;;;;;5015276;28;20562;-80
2022/01/05 01:10:16;;;;;;;4.68;2.15;;;3.00;99.90;;;;;;5036010;28;20040;-80
2022/01/05 01:12:41;;;;;;;7.55;2.05;;;3.10;99.90;;;;;;5035927;28;20158;-80
2022/01/05 01:15:10;;;;;;;8.60;2.35;;;3.00;99.90;;;;;;5017213;28;20440;-80
2022/01/05 01:17:35;;;;;;;5.32;2.13;;;3.10;99.90;;;;;;5016985;28;20044;-80
2022/01/05 01:20:02;;;;;;;10.07;3.08;;;3.10;99.90;;;;;;5017850;28;20045;-80
2022/01/05 01:22:30;;;;;;;3.58;2.08;;;3.10;99.90;;;;;;5019384;28;20106;-80
2022/01/05 01:24:55;;;;;;;6.50;2.53;;;3.20;99.90;;;;;;5036701;28;20064;-79
2022/01/05 01:27:21;;;;;;;4.28;1.77;;;3.20;99.90;;;;;;5035769;28;20044;-79
2022/01/05 01:29:46;;;;;;;5.15;2.17;;;3.20;99.90;;;;;;5017491;28;20037;-79
2022/01/05 01:32:12;;;;;;;9.75;2.85;;;3.20;99.90;;;;;;5017745;28;20053;-79
2022/01/05 01:34:38;;;;;;;5.15;2.03;;;3.20;99.90;;;;;;5018567;28;20060;-79
2022/01/05 01:37:03;;;;;;;4.53;2.08;;;3.20;99.90;;;;;;5017899;28;20066;-79
2022/01/05 01:39:29;;;;;;;13.48;2.45;;;3.20;99.90;;;;;;5033037;28;20052;-79
2022/01/05 01:41:55;;;;;;;3.13;1.80;;;3.10;99.90;;;;;;5036038;28;20595;-79
2022/01/05 01:44:20;;;;;;;3.47;1.83;;;3.20;99.90;;;;;;5035425;28;20044;-79
2022/01/05 01:46:46;;;;;;;3.22;1.50;;;3.10;99.90;;;;;;5016584;28;20047;-80
2022/01/05 01:49:12;;;;;;;10.98;3.17;;;3.10;99.90;;;;;;5019847;28;20049;-79
2022/01/05 01:51:38;;;;;;;6.70;2.05;;;3.10;99.90;;;;;;5037950;28;20634;-81
2022/01/05 01:54:05;;;;;;;9.27;2.25;;;3.10;99.90;;;;;;5019078;28;20060;-78
2022/01/05 01:56:33;;;;;;;5.30;2.97;;;3.00;99.90;;;;;;5019861;28;20091;-79
2022/01/05 01:59:00;;;;;;;7.18;2.22;;;3.10;99.90;;;;;;5038212;28;20072;-79
2022/01/05 02:01:26;;;;;;;5.93;2.55;;;3.00;99.90;;;;;;5018693;28;20915;-79
2022/01/05 02:03:52;;;;;;;6.10;1.58;;;3.00;99.90;;;;;;5019541;28;20051;-79
2022/01/05 02:06:17;;;;;;;7.90;2.05;;;3.00;99.90;;;;;;5036869;28;20052;-79
2022/01/05 02:08:43;;;;;;;3.50;1.88;;;3.00;99.90;;;;;;5019224;28;20048;-79
2022/01/05 02:11:10;;;;;;;4.60;2.35;;;3.00;99.90;;;;;;5037344;28;20103;-79
2022/01/05 02:13:35;;;;;;;16.20;2.40;;;2.90;99.90;;;;;;5017647;28;20055;-79
2022/01/05 02:16:02;;;;;;;5.10;2.28;;;2.90;99.90;;;;;;5037679;28;20048;-78
2022/01/05 02:21:08;;;;;;;3.75;2.20;;;2.90;99.90;;;;;;5017913;28;20056;-79
2022/01/05 02:23:35;;;;;;;10.40;2.65;;;2.80;99.90;;;;;;5034105;28;20041;-79
2022/01/05 02:26:03;;;;;;;4.75;1.90;;;2.90;99.90;;;;;;5036784;28;20049;-79
2022/01/05 02:28:29;;;;;;;3.38;2.33;;;2.90;99.90;;;;;;5036422;28;20053;-79
2022/01/05 02:30:56;;;;;;;11.43;3.47;;;2.80;99.90;;;;;;5019605;28;20053;-79
2022/01/05 02:33:22;;;;;;;3.35;1.90;;;2.90;99.90;;;;;;5037526;28;20101;-79
2022/01/05 02:35:48;;;;;;;11.73;2.90;;;2.90;99.90;;;;;;5018996;28;20654;-79
2022/01/05 02:38:21;;;;;;;9.45;2.75;;;2.90;99.90;;;;;;5018689;28;20061;-79
2022/01/05 02:40:47;;;;;;;4.60;2.50;;;2.90;99.90;;;;;;5016232;28;20127;-79
2022/01/05 02:43:13;;;;;;;3.40;1.58;;;2.90;99.90;;;;;;5014325;28;20093;-79
2022/01/05 02:45:39;;;;;;;8.63;2.65;;;2.90;99.90;;;;;;5014561;28;20489;-79
2022/01/05 02:48:05;;;;;;;8.00;2.80;;;3.00;99.90;;;;;;5015364;28;20128;-79
2022/01/05 02:50:30;;;;;;;8.77;2.85;;;2.90;99.90;;;;;;5014627;28;20044;-79
2022/01/05 02:52:56;;;;;;;10.25;2.20;;;2.90;99.90;;;;;;5016517;28;20790;-79
2022/01/05 02:55:22;;;;;;;4.70;2.25;;;3.00;99.90;;;;;;5016616;28;20175;-79
2022/01/05 02:57:47;;;;;;;3.88;2.03;;;3.00;99.90;;;;;;5015759;28;20120;-79
2022/01/05 03:00:16;;;;;;;4.53;2.50;;;3.00;99.90;;;;;;5014663;28;20127;-79
2022/01/05 03:02:42;;;;;;;9.27;3.35;;;3.00;99.90;;;;;;5015389;28;20045;-79
2022/01/05 03:05:09;;;;;;;4.35;2.97;;;3.00;99.90;;;;;;5016195;28;20049;-79
2022/01/05 03:07:39;;;;;;;8.40;2.67;;;3.00;99.90;;;;;;5017105;28;20049;-79
2022/01/05 03:10:06;;;;;;;5.95;2.28;;;3.00;99.90;;;;;;5015760;28;20939;-79
2022/01/05 03:12:31;;;;;;;6.68;2.58;;;3.10;99.90;;;;;;5016489;28;20053;-79
2022/01/05 03:14:57;;;;;;;6.70;3.08;;;3.10;99.90;;;;;;5015278;28;20551;-79
2022/01/05 03:17:22;;;;;;;7.70;2.70;;;3.20;99.90;;;;;;5014470;28;20144;-79
2022/01/05 03:19:48;;;;;;;7.00;2.35;;;3.20;99.90;;;;;;5015111;28;20033;-79
2022/01/05 03:22:13;;;;;;;6.30;2.20;;;3.30;99.90;;;;;;5016084;28;20049;-79
2022/01/05 03:24:39;;;;;;;8.88;2.50;;;3.30;99.90;;;;;;5014898;28;20525;-79
2022/01/05 03:27:05;;;;;;;10.40;3.28;;;3.40;99.90;;;;;;5015620;28;20128;-79
2022/01/05 03:29:31;;;;;;;5.85;2.38;;;3.40;99.90;;;;;;5016431;28;20046;-80
2022/01/05 03:31:57;;;;;;;5.25;2.50;;;3.50;99.90;;;;;;5015856;28;20576;-80
2022/01/05 03:34:22;;;;;;;4.18;3.63;;;3.50;99.90;;;;;;5015186;28;20053;-79
2022/01/05 03:36:48;;;;;;;9.95;4.50;;;3.50;99.90;;;;;;5013486;28;20037;-79
2022/01/05 03:39:14;;;;;;;8.85;2.60;;;3.60;99.90;;;;;;5013947;28;20040;-79
2022/01/05 03:41:40;;;;;;;7.45;2.85;;;3.60;99.90;;;;;;5015336;28;20588;-79
2022/01/05 03:44:05;;;;;;;7.53;2.97;;;3.70;99.90;;;;;;5017372;28;20050;-79
2022/01/05 03:46:31;;;;;;;10.38;2.40;;;3.70;99.90;;;;;;5015061;28;20140;-79
2022/01/05 03:48:57;;;;;;;6.93;2.50;;;3.70;99.90;;;;;;5014968;28;20089;-79
2022/01/05 03:51:22;;;;;;;10.98;2.97;;;3.80;99.90;;;;;;5016160;28;20049;-79
2022/01/05 03:53:48;;;;;;;10.40;3.03;;;3.80;99.90;;;;;;5014878;28;20785;-79
2022/01/05 03:56:13;;;;;;;5.63;3.10;;;3.70;99.90;;;;;;5016419;28;20049;-79
2022/01/05 03:58:39;;;;;;;6.53;2.45;;;3.70;99.90;;;;;;5017007;28;20057;-79
2022/01/05 04:01:04;;;;;;;13.50;3.78;;;3.70;99.90;;;;;;5019271;28;20687;-78
2022/01/05 04:03:30;;;;;;;6.22;2.53;;;3.70;99.90;;;;;;5018076;28;20520;-79
2022/01/05 04:05:56;;;;;;;16.55;3.50;;;3.70;99.90;;;;;;5019542;28;20682;-78
2022/01/05 04:08:22;;;;;;;7.28;3.60;;;3.70;99.90;;;;;;5018006;28;20113;-78
2022/01/05 04:10:47;;;;;;;5.97;2.88;;;3.80;99.90;;;;;;5020396;28;20053;-79
2022/01/05 04:13:14;;;;;;;4.45;2.30;;;3.80;99.90;;;;;;5020105;28;20862;-79
2022/01/05 04:15:40;;;;;;;6.90;2.45;;;3.80;99.90;;;;;;5020488;28;20041;-79
2022/01/05 04:18:06;;;;;;;6.80;2.47;;;3.80;99.90;;;;;;5019933;28;20919;-79
2022/01/05 04:20:32;;;;;;;3.50;2.15;;;3.90;99.90;;;;;;5018106;28;20096;-79
2022/01/05 04:22:58;;;;;;;8.18;3.30;;;3.90;99.90;;;;;;5019288;28;20053;-79
2022/01/05 04:25:24;;;;;;;4.15;1.77;;;4.00;99.90;;;;;;5019273;28;20077;-79
2022/01/05 04:27:50;;;;;;;6.60;1.85;;;4.10;99.90;;;;;;5017805;28;20495;-79
2022/01/05 04:30:15;;;;;;;6.78;2.50;;;4.10;99.90;;;;;;5018267;28;20104;-79
2022/01/05 04:32:41;;;;;;;7.40;2.63;;;4.20;99.90;;;;;;5017592;28;20610;-79
2022/01/05 04:35:07;;;;;;;10.07;2.78;;;4.30;99.90;;;;;;5017925;28;20045;-78
2022/01/05 04:37:33;;;;;;;6.47;2.67;;;4.40;99.90;;;;;;5020404;28;20071;-78
2022/01/05 04:40:00;;;;;;;3.65;1.90;;;4.30;99.90;;;;;;5019287;28;20049;-79
2022/01/05 04:42:26;;;;;;;3.17;2.28;;;4.40;99.90;;;;;;5038010;28;20060;-80
2022/01/05 04:44:53;;;;;;;5.40;2.33;;;4.30;99.90;;;;;;5039591;28;20052;-80
2022/01/05 04:47:18;;;;;;;7.57;1.90;;;4.30;99.90;;;;;;5020880;28;20060;-80
2022/01/05 04:49:44;;;;;;;5.00;1.92;;;4.30;99.90;;;;;;5038027;28;20047;-80
2022/01/05 04:52:09;;;;;;;5.07;2.05;;;3.30;99.90;;;;;;5038621;28;20041;-81
2022/01/05 04:54:35;;;;;;;4.57;2.58;;;4.20;99.90;;;;;;5022031;28;20134;-80
2022/01/05 04:57:01;;;;;;;4.40;2.13;;;4.20;99.90;;;;;;5038707;28;20074;-80
2022/01/05 04:59:26;;;;;;;5.60;2.63;;;4.20;99.90;;;;;;5039503;28;20049;-80
2022/01/05 05:01:52;;;;;;;6.93;2.00;;;4.30;99.90;;;;;;5021027;28;20060;-80
2022/01/05 05:04:17;;;;;;;3.83;1.63;;;4.30;99.90;;;;;;5039329;28;20063;-80
2022/01/05 05:06:43;;;;;;;6.22;2.33;;;4.30;99.90;;;;;;5038920;28;20129;-80
2022/01/05 05:09:08;;;;;;;5.25;2.47;;;4.30;99.90;;;;;;5020877;28;20488;-80
2022/01/05 05:11:34;;;;;;;5.05;2.00;;;4.30;99.90;;;;;;5021551;28;20610;-80
2022/01/05 05:14:00;;;;;;;3.65;2.38;;;4.30;99.90;;;;;;5021280;28;20145;-80
2022/01/05 05:16:25;;;;;;;9.82;2.05;;;4.20;99.90;;;;;;5021236;28;20057;-80
2022/01/05 05:18:51;;;;;;;2.38;1.92;;;4.20;99.90;;;;;;5020700;28;20051;-80
2022/01/05 05:21:17;;;;;;;6.03;2.78;;;4.20;99.90;;;;;;5038592;28;20057;-79
2022/01/05 05:23:42;;;;;;;7.65;2.45;;;4.20;99.90;;;;;;5037727;28;20218;-80
2022/01/05 05:26:08;;;;;;;9.20;2.55;;;4.10;99.90;;;;;;5038718;28;20069;-80
2022/01/05 05:28:34;;;;;;;5.18;2.85;;;4.10;99.90;;;;;;5021681;28;20148;-79
2022/01/05 05:30:59;;;;;;;4.72;1.83;;;4.10;99.90;;;;;;5038894;28;20056;-80
2022/01/05 05:33:25;;;;;;;7.45;2.47;;;4.10;99.90;;;;;;5039676;28;20045;-80
2022/01/05 05:35:50;;;;;;;13.35;3.13;;;4.10;99.90;;;;;;5039331;28;20052;-80
2022/01/05 05:38:16;;;;;;;4.82;2.50;;;4.20;99.90;;;;;;5020268;28;20526;-80
2022/01/05 05:40:43;;;;;;;3.45;1.92;;;4.20;99.90;;;;;;5020893;28;20045;-80
2022/01/05 05:43:09;;;;;;;5.93;2.25;;;4.20;99.90;;;;;;5021182;28;20048;-79
2022/01/05 05:45:34;;;;;;;7.75;2.58;;;4.30;99.90;;;;;;5021054;28;20618;-80
2022/01/05 05:48:00;;;;;;;6.97;2.75;;;4.30;99.90;;;;;;5021547;28;20079;-80
2022/01/05 05:50:26;;;;;;;3.88;2.45;;;4.30;99.90;;;;;;5020866;28;20095;-81
2022/01/05 05:52:51;;;;;;;5.60;2.65;;;4.40;99.90;;;;;;5035851;28;20084;-78
2022/01/05 05:55:17;;;;;;;9.52;3.83;;;4.40;99.90;;;;;;5036497;28;20048;-76
2022/01/05 05:57:43;;;;;;;6.30;3.10;;;4.40;99.90;;;;;;5035768;28;20048;-79
2022/01/05 06:00:09;;;;;;;8.57;2.80;;;4.50;99.90;;;;;;5017633;28;20081;-81
2022/01/05 06:02:36;;;;;;;12.43;3.58;;;4.50;99.90;;;;;;5007531;28;20052;-81
2022/01/05 06:05:02;;;;;;;11.60;3.50;;;4.50;99.90;;;;;;5018106;28;20234;-84
2022/01/05 06:07:27;;;;;;;9.90;3.22;;;4.50;99.90;;;;;;5035550;28;20106;-85
2022/01/05 06:09:53;;;;;;;6.03;3.15;;;4.60;99.90;;;;;;5018259;28;20045;-83
2022/01/05 06:12:18;;;;;;;11.38;4.07;;;4.50;99.90;;;;;;5018062;28;20087;-82
2022/01/05 06:14:44;;;;;;;13.05;4.30;;;4.50;99.90;;;;;;5017719;28;20044;-85
2022/01/05 06:17:09;;;;;;;9.38;3.90;;;4.50;99.90;;;;;;5036035;28;20080;-85
2022/01/05 06:19:35;;;;;;;8.82;2.65;;;4.50;99.90;;;;;;5035740;28;20060;-85
2022/01/05 06:22:01;;;;;;;5.13;3.30;;;4.50;99.90;;;;;;5035129;28;20041;-88
2022/01/05 06:24:26;;;;;;;4.72;2.40;;;4.40;99.90;;;;;;5028328;28;20042;-83
2022/01/05 06:26:52;;;;;;;7.25;2.78;;;4.40;99.90;;;;;;5004538;28;20077;-82
2022/01/05 06:29:19;;;;;;;5.68;2.05;;;4.40;99.90;;;;;;5033304;28;20854;-81
2022/01/05 06:31:44;;;;;;;3.10;1.92;;;4.40;99.90;;;;;;5016179;28;20049;-81
2022/01/05 06:34:10;;;;;;;6.00;1.98;;;4.50;99.90;;;;;;5035247;28;20083;-82
2022/01/05 06:36:36;;;;;;;8.98;4.07;;;4.50;99.90;;;;;;5017014;28;20045;-82
2022/01/05 06:39:02;;;;;;;8.07;1.85;;;4.50;99.90;;;;;;5017862;28;20045;-87
2022/01/05 06:41:28;;;;;;;9.30;2.63;;;4.50;99.90;;;;;;5033951;28;20132;-83
2022/01/05 06:43:53;;;;;;;5.68;2.05;;;4.50;99.90;;;;;;5034578;28;20059;-81
2022/01/05 06:46:19;;;;;;;5.32;2.35;;;4.60;99.90;;;;;;5035754;28;20055;-81
2022/01/05 06:48:44;;;;;;;6.63;2.05;;;4.60;99.90;;;;;;5016965;28;20055;-80
2022/01/05 06:51:10;;;;;;;9.38;2.47;;;4.60;99.90;;;;;;5017776;28;20048;-81
2022/01/05 06:53:36;;;;;;;5.50;2.10;;;4.60;99.90;;;;;;5017174;28;20087;-80
2022/01/05 06:56:03;;;;;;;4.30;1.42;;;4.60;99.90;;;;;;5034240;28;20405;-81
2022/01/05 06:58:29;;;;;;;5.80;2.00;;;4.60;99.90;;;;;;5035060;28;20060;-80
2022/01/05 07:00:55;;;;;;;7.65;2.25;;;4.60;99.90;;;;;;5035649;28;20048;-80
2022/01/05 07:03:21;;;;;;;5.22;2.58;;;4.60;99.90;;;;;;5035011;28;20563;-80
2022/01/05 07:05:47;;;;;;;8.65;2.80;;;4.60;99.90;;;;;;5017628;28;20087;-81
2022/01/05 07:08:12;;;;;;;4.10;1.90;;;4.70;99.90;;;;;;5016865;28;20055;-80
2022/01/05 07:10:38;;;;;;;5.05;2.28;;;4.70;99.90;;;;;;5034911;28;20053;-81
2022/01/05 07:13:03;;;;;;;5.07;2.58;;;4.70;99.90;;;;;;5017106;28;20463;-80
2022/01/05 07:15:29;;;;;;;2.63;1.60;;;4.70;99.90;;;;;;5017260;28;20084;-81
2022/01/05 07:17:54;;;;;;;5.10;2.22;;;4.70;99.90;;;;;;5017861;28;20060;-80
2022/01/05 07:20:20;;;;;;;6.05;3.50;;;4.80;99.90;;;;;;5034549;28;20068;-83
2022/01/05 07:22:46;;;;;;;11.80;2.13;;;4.80;99.90;;;;;;5032699;28;20247;-82
2022/01/05 07:25:11;;;;;;;5.85;1.58;;;4.80;99.90;;;;;;5033885;28;20045;-80
2022/01/05 07:27:38;;;;;;;8.35;1.85;;;4.80;99.90;;;;;;5034456;28;20094;-80
2022/01/05 07:30:05;;;;;;;1.80;1.67;;;4.80;99.90;;;;;;5034617;28;20049;-81
2022/01/05 07:32:30;;;;;;;6.75;1.88;;;4.80;99.90;;;;;;5036741;28;20163;-80
2022/01/05 07:34:56;;;;;;;4.78;2.58;;;4.80;99.90;;;;;;5021129;28;20053;-80
2022/01/05 07:37:22;;;;;;;3.63;1.40;;;4.90;99.90;;;;;;5038240;28;20060;-81
2022/01/05 07:39:48;;;;;;;6.63;1.63;;;4.80;99.90;;;;;;5020609;28;20824;-82
2022/01/05 07:42:13;;;;;;;4.30;1.92;;;3.80;99.90;;;;;;5037518;28;20495;-81
2022/01/05 07:44:39;;;;;;;2.95;1.42;;;4.80;99.90;;;;;;5017984;28;20041;-81
2022/01/05 07:47:06;;;;;;;3.50;2.08;;;4.80;99.90;;;;;;5018969;28;20160;-83
2022/01/05 07:49:32;;;;;;;8.77;2.22;;;4.80;99.90;;;;;;5018706;28;20049;-71
2022/01/05 07:51:58;;;;;;;13.02;3.35;;;4.90;99.90;;;;;;5036293;28;20053;-86
2022/01/05 07:54:23;;;;;;;2.53;1.65;;;4.90;99.90;;;;;;5020051;28;20127;-83
2022/01/05 07:56:49;;;;;;;6.65;2.45;;;4.90;99.90;;;;;;5020726;28;20044;-84
2022/01/05 07:59:14;;;;;;;2.65;1.60;;;4.90;99.90;;;;;;5037580;28;20056;-81
2022/01/05 08:01:40;;;;;;;3.83;2.28;;;4.90;99.90;;;;;;5019962;28;20049;-82
2022/01/05 08:04:05;;;;;;;3.10;1.88;;;4.90;99.90;;;;;;5018720;28;20051;-81
2022/01/05 08:06:31;;;;;;;7.57;2.00;;;5.00;99.90;;;;;;5018407;28;20073;-81
2022/01/05 08:08:56;;;;;;;3.42;1.42;;;5.10;99.90;;;;;;5019683;28;20059;-80
2022/01/05 08:11:22;;;;;;;4.40;1.60;;;5.10;99.90;;;;;;5020451;28;20400;-81
2022/01/05 08:13:48;;;;;;;3.65;2.40;;;5.10;99.90;;;;;;5018912;28;20583;-85
2022/01/05 08:16:15;;;;;;;5.55;3.00;;;5.20;99.90;;;;;;5019598;28;20045;-85
2022/01/05 08:18:40;;;;;;;4.07;2.00;;;5.20;99.90;;;;;;5020342;28;20063;-85
2022/01/05 08:21:06;;;;;;;9.85;2.35;;;5.20;99.90;;;;;;5040025;28;20045;-83
2022/01/05 08:23:32;;;;;;;5.95;2.50;;;5.30;99.90;;;;;;5021595;28;20045;-83
2022/01/05 08:25:58;;;;;;;4.65;2.85;;;5.30;99.90;;;;;;5021314;28;20241;-82
2022/01/05 08:28:24;;;;;;;8.48;1.55;;;5.40;99.90;;;;;;5022247;28;20052;-83
2022/01/05 08:30:50;;;;;;;7.38;2.10;;;5.40;99.90;;;;;;5040791;28;20045;-82
2022/01/05 08:33:17;;;;;;;4.97;1.10;;;5.40;99.90;;;;;;5022133;28;20049;-82
2022/01/05 08:35:44;;;;;;;6.55;1.67;;;5.40;99.90;;;;;;5040790;28;20388;-83
2022/01/05 08:38:10;;;;;;;5.88;1.27;;;5.40;99.90;;;;;;5022276;28;20123;-84
2022/01/05 08:40:37;;;;;;;12.93;2.15;;;5.50;99.90;;;;;;4673197;28;10000515;-73
2022/01/05 08:43:04;;;;;;;3.00;1.67;;;5.50;99.90;;;;;;5018604;28;20664;-82
2022/01/05 08:45:31;;;;;;;3.92;1.58;;;5.50;99.90;;;;;;5031765;28;20037;-82
2022/01/05 08:47:58;;;;;;;5.85;1.70;;;5.50;99.90;;;;;;5032767;28;20499;-80
2022/01/05 08:50:25;;;;;;;10.10;2.00;;;5.50;99.90;;;;;;5016184;28;20040;-82
2022/01/05 08:52:52;;;;;;;5.45;2.17;;;5.60;99.90;;;;;;5016796;28;20059;-82
2022/01/05 08:55:20;;;;;;;5.20;2.15;;;5.60;99.90;;;;;;5033566;28;20543;-81
2022/01/05 08:57:47;;;;;;;3.70;2.20;;;5.60;99.90;;;;;;5034800;28;20875;-82
2022/01/05 09:00:13;;;;;;;6.10;1.95;;;5.60;99.90;;;;;;5031489;28;20044;-83
2022/01/05 09:02:39;;;;;;;4.65;2.20;;;5.70;99.90;;;;;;5016089;28;20095;-83
2022/01/05 09:05:06;;;;;;;6.05;1.98;;;5.70;99.90;;;;;;5034509;28;20084;-83
2022/01/05 09:07:32;;;;;;;10.18;2.25;;;5.80;99.90;;;;;;5017599;28;20056;-82
2022/01/05 09:09:57;;;;;;;6.32;3.42;;;5.80;99.90;;;;;;5034827;28;20052;-83
2022/01/05 09:12:23;;;;;;;4.13;1.95;;;5.90;99.90;;;;;;5035947;28;20156;-83
2022/01/05 09:14:49;;;;;;;6.57;2.03;;;6.00;99.90;;;;;;5016863;28;20045;-83
2022/01/05 09:17:15;;;;;;;4.43;2.05;;;6.00;99.90;;;;;;5016440;28;20112;-83
2022/01/05 09:19:42;;;;;;;9.60;2.90;;;6.10;99.90;;;;;;5035672;28;20853;-84
2022/01/05 09:22:08;;;;;;;6.97;3.13;;;6.00;99.90;;;;;;5035967;28;20052;-78
2022/01/05 09:24:36;;;;;;;11.73;2.75;;;6.00;99.90;;;;;;5014890;28;20083;-73
2022/01/05 09:27:04;;;;;;;6.82;1.80;;;6.00;99.90;;;;;;5034714;28;20064;-72
2022/01/05 09:29:30;;;;;;;14.95;2.78;;;6.00;99.90;;;;;;5034547;28;20067;-72
2022/01/05 09:31:57;;;;;;;8.63;2.75;;;5.90;99.90;;;;;;5036270;28;20488;-73
2022/01/05 09:34:23;;;;;;;4.72;2.60;;;5.90;99.90;;;;;;5018183;28;20079;-71
2022/01/05 09:36:56;;;;;;;6.47;1.85;;;5.90;99.90;;;;;;5035142;28;20871;-72
2022/01/05 09:42:07;;;;;;;;;;;5.90;99.90;;;;;;5017666;28;20493;-72
2022/01/05 09:44:34;;;;;;;7.63;2.10;;;6.00;99.90;;;;;;5017109;28;19924;-71
2022/01/05 09:47:13;;;;;;;4.50;3.17;;;6.00;99.90;;;;;;5018249;28;20264;-71
2022/01/05 09:49:45;;;;;;;2.45;1.80;;;6.10;99.90;;;;;;5017910;28;20159;-71
2022/01/05 09:52:11;;;;;;;14.85;3.22;;;6.10;99.90;;;;;;5013348;28;20111;-72
2022/01/05 09:54:42;;;;;;;4.75;1.95;;;6.30;99.90;;;;;;5014954;28;20048;-71
2022/01/05 09:57:09;;;;;;;7.93;3.03;;;6.30;99.90;;;;;;5015715;28;20049;-72
2022/01/05 09:59:36;;;;;;;8.23;3.22;;;6.40;99.90;;;;;;5032834;28;20052;-80
2022/01/05 10:02:05;;;;;;;7.43;3.70;;;6.40;99.90;;;;;;5017153;28;20048;-80
2022/01/05 10:04:32;;;;;;;5.75;2.22;;;6.40;99.90;;;;;;5014607;28;20586;-80
2022/01/05 10:06:58;;;;;;;9.00;2.63;;;6.50;99.90;;;;;;5034141;28;20794;-83
2022/01/05 10:09:23;;;;;;;13.15;2.92;;;6.60;99.90;;;;;;5014502;28;20148;-82
2022/01/05 10:11:49;;;;;;;6.75;2.67;;;6.70;99.90;;;;;;5015059;28;20041;-80
2022/01/05 10:14:16;;;;;;;5.32;2.38;;;6.70;99.90;;;;;;5033637;28;20052;-82
2022/01/05 10:16:59;;;;;;;6.43;2.20;;;6.80;99.90;;;;;;5013881;28;20126;-82
2022/01/05 10:19:24;;;;;;;7.03;2.42;;;6.80;99.90;;;;;;5034412;28;20056;-81
2022/01/05 10:21:51;;;;;;;4.22;2.60;;;6.90;99.90;;;;;;5034718;28;20049;-81
2022/01/05 10:24:16;;;;;;;3.42;2.00;;;6.90;99.90;;;;;;5016456;28;20044;-81
2022/01/05 10:26:42;;;;;;;4.95;2.85;;;6.90;99.90;;;;;;5034896;28;20045;-82
2022/01/05 10:29:20;;;;;;;7.72;2.50;;;6.90;99.90;;;;;;5035275;28;20947;-79
2022/01/05 10:31:53;;;;;;;7.75;2.42;;;7.00;99.90;;;;;;5014178;28;20052;-80
2022/01/05 10:34:20;;;;;;;6.43;2.90;;;7.00;99.90;;;;;;5015550;28;20057;-79
2022/01/05 10:36:45;;;;;;;7.15;2.80;;;7.00;99.90;;;;;;5034317;28;20503;-79
2022/01/05 10:39:11;;;;;;;7.75;2.60;;;7.10;99.90;;;;;;5016639;28;20048;-79
2022/01/05 10:41:38;;;;;;;19.38;5.13;;;7.10;99.90;;;;;;5015347;28;20235;-79
2022/01/05 10:44:18;;;;;;;17.13;2.30;;;7.10;99.90;;;;;;5034781;28;20056;-79
2022/01/05 10:46:55;;;;;;;6.88;2.28;;;7.10;99.90;;;;;;5035199;28;20110;-77
2022/01/05 10:49:29;;;;;;;8.02;2.78;;;7.20;99.90;;;;;;5037563;28;20047;-81
2022/01/05 10:51:59;;;;;;;5.80;2.05;;;7.30;99.90;;;;;;5000284;28;20095;-81
2022/01/05 10:54:26;;;;;;;7.85;1.95;;;7.30;99.90;;;;;;5016025;28;20053;-80
2022/01/05 10:56:53;;;;;;;8.55;2.33;;;7.30;99.90;;;;;;5016411;28;20062;-81
2022/01/05 10:59:43;;;;;;;5.13;2.08;;;7.40;99.90;;;;;;4999803;28;20049;-81
2022/01/05 11:02:30;;;;;;;10.93;3.15;;;7.40;99.90;;;;;;4999856;28;20159;-81
2022/01/05 11:05:12;;;;;;;10.15;3.60;;;7.60;99.90;;;;;;5019335;28;20049;-81
2022/01/05 11:07:39;;;;;;;7.75;2.42;;;7.60;99.90;;;;;;5015388;28;20057;-81
2022/01/05 11:10:14;;;;;;;9.60;2.90;;;7.60;99.90;;;;;;5023770;28;20490;-82
2022/01/05 11:12:42;;;;;;;11.45;3.78;;;7.60;99.90;;;;;;5023674;28;20586;-81
2022/01/05 11:15:21;;;;;;;10.73;3.20;;;7.70;99.90;;;;;;5023840;28;20230;-81
2022/01/05 11:18:16;;;;;;;8.75;2.95;;;7.80;99.90;;;;;;5023956;28;20049;-81
2022/01/05 11:20:55;;;;;;;9.93;3.00;;;7.90;99.90;;;;;;5023109;28;20053;-79
2022/01/05 11:23:23;;;;;;;11.07;3.58;;;7.90;99.90;;;;;;5041351;28;20047;-80
2022/01/05 11:25:51;;;;;;;8.90;3.85;;;7.90;99.90;;;;;;5042758;28;20056;-80
2022/01/05 11:28:18;;;;;;;5.93;3.25;;;7.90;99.90;;;;;;5024385;28;20072;-81
2022/01/05 11:30:46;;;;;;;8.35;3.10;;;7.90;99.90;;;;;;5024743;28;20068;-81
2022/01/05 11:33:12;;;;;;;15.40;4.28;;;7.90;99.90;;;;;;5025819;28;20049;-81
2022/01/05 11:35:40;;;;;;;8.98;3.42;;;7.80;99.90;;;;;;5043575;28;20041;-81
2022/01/05 11:38:06;;;;;;;7.78;2.30;;;7.80;99.90;;;;;;5043331;28;20381;-82
2022/01/05 11:40:33;;;;;;;7.82;2.83;;;7.80;99.90;;;;;;5045265;28;20110;-81
2022/01/05 11:43:03;;;;;;;8.13;3.08;;;8.50;99.90;;;;;;5044027;28;20158;-82
2022/01/05 11:45:45;;;;;;;14.05;4.35;;;7.80;99.90;;;;;;5043754;28;20070;-82
2022/01/05 11:48:22;;;;;;;8.63;3.05;;;8.10;99.90;;;;;;5026214;28;20127;-81
2022/01/05 11:50:57;;;;;;;12.90;3.75;;;8.10;99.90;;;;;;5044925;28;20120;-82
2022/01/05 11:53:44;;;;;;;8.82;3.33;;;8.10;99.90;;;;;;5026763;28;20163;-81
2022/01/05 11:56:21;;;;;;;9.27;4.57;;;8.20;99.90;;;;;;5042838;28;20463;-83
2022/01/05 11:58:55;;;;;;;16.52;4.32;;;8.20;99.90;;;;;;5025290;28;20061;-81
2022/01/05 12:01:22;;;;;;;6.93;2.88;;;8.20;99.90;;;;;;5025494;28;20057;-82
2022/01/05 12:03:56;;;;;;;11.13;3.38;;;8.20;99.90;;;;;;5023269;28;20048;-82
2022/01/05 12:06:23;;;;;;;10.93;3.90;;;8.20;99.90;;;;;;5040613;28;20049;-81
2022/01/05 12:08:54;;;;;;;8.10;4.25;;;8.20;99.90;;;;;;5042007;28;20512;-82
2022/01/05 12:11:28;;;;;;;14.05;3.67;;;8.30;99.90;;;;;;5042203;28;20164;-81
2022/01/05 12:13:54;;;;;;;10.30;3.20;;;8.30;99.90;;;;;;5023585;28;20059;-82
2022/01/05 12:16:19;;;;;;;9.20;3.05;;;8.20;99.90;;;;;;5023384;28;20052;-82
2022/01/05 12:19:03;;;;;;;4.70;2.55;;;8.20;99.90;;;;;;5021085;28;20576;-81
2022/01/05 12:21:50;;;;;;;5.32;2.67;;;8.10;99.90;;;;;;5023133;28;20571;-82
2022/01/05 12:24:16;;;;;;;14.93;4.55;;;8.10;99.90;;;;;;5022424;28;20490;-82
2022/01/05 12:26:43;;;;;;;8.30;2.85;;;8.10;99.90;;;;;;5022071;28;20045;-82
2022/01/05 12:29:10;;;;;;;4.70;2.35;;;8.20;99.90;;;;;;5039524;28;20065;-81
2022/01/05 12:31:48;;;;;;;9.93;2.55;;;8.20;99.90;;;;;;5021708;28;20040;-82
2022/01/05 12:34:14;;;;;;;9.88;4.43;;;8.30;99.90;;;;;;5020302;28;20483;-73
2022/01/05 12:36:42;;;;;;;6.47;2.97;;;8.30;99.90;;;;;;5022071;28;20504;-81
2022/01/05 12:39:09;;;;;;;7.65;2.63;;;8.30;99.90;;;;;;5018683;28;20057;-81
2022/01/05 12:41:39;;;;;;;12.43;2.80;;;8.30;99.90;;;;;;5018694;28;20060;-79
2022/01/05 12:44:26;;;;;;;5.20;2.35;;;8.20;99.90;;;;;;5036037;28;20439;-82
2022/01/05 12:46:53;;;;;;;7.75;2.90;;;8.10;99.90;;;;;;5018510;28;20067;-82
2022/01/05 12:49:25;;;;;;;8.93;2.70;;;8.10;99.90;;;;;;5019076;28;20126;-82
2022/01/05 12:51:57;;;;;;;9.00;4.13;;;8.10;99.90;;;;;;5017902;28;20159;-81
2022/01/05 12:54:29;;;;;;;14.18;4.47;;;8.00;99.90;;;;;;5036086;28;20061;-81
2022/01/05 12:56:56;;;;;;;3.00;2.20;;;8.00;99.90;;;;;;5036885;28;20115;-80
2022/01/05 12:59:31;;;;;;;7.82;2.42;;;8.00;99.90;;;;;;5034958;28;20041;-76
2022/01/05 13:02:27;;;;;;;6.60;3.05;;;7.90;99.90;;;;;;5016376;28;20102;-76